sensor_id;sensor_type;location;lat;lon;timestamp;pressure;altitude;pressure_sealevel;temperature;humidity
62031;BME280;62035;52.094;5.112;2022-08-19T00:01:49;101467.91;;;20.74;100.00
62031;BME280;62035;52.094;5.112;2022-08-19T00:04:19;101470.63;;;20.81;100.00
62031;BME280;62035;52.094;5.112;2022-08-19T00:06:50;101467.31;;;20.79;100.00
62031;BME280;62035;52.094;5.112;2022-08-19T00:09:20;101466.63;;;20.70;100.00
62031;BME280;62035;52.094;5.112;2022-08-19T00:11:49;101471.19;;;20.63;100.00
62031;BME280;62035;52.094;5.112;2022-08-19T00:14:17;101479.72;;;20.67;100.00
62031;BME280;62035;52.094;5.112;2022-08-19T00:16:46;101472.69;;;20.72;100.00
62031;BME280;62035;52.094;5.112;2022-08-19T00:19:14;101473.97;;;20.83;100.00
62031;BME280;62035;52.094;5.112;2022-08-19T00:21:41;101491.19;;;20.69;100.00
62031;BME280;62035;52.094;5.112;2022-08-19T00:24:10;101474.91;;;21.03;100.00
62031;BME280;62035;52.094;5.112;2022-08-19T00:26:40;101478.34;;;20.84;100.00
62031;BME280;62035;52.094;5.112;2022-08-19T00:29:10;101470.28;;;20.97;100.00
62031;BME280;62035;52.094;5.112;2022-08-19T00:31:38;101462.25;;;21.17;100.00
62031;BME280;62035;52.094;5.112;2022-08-19T00:34:07;101458.72;;;21.23;100.00
62031;BME280;62035;52.094;5.112;2022-08-19T00:36:34;101455.81;;;21.18;100.00
62031;BME280;62035;52.094;5.112;2022-08-19T00:39:02;101463.69;;;21.13;100.00
62031;BME280;62035;52.094;5.112;2022-08-19T00:41:30;101461.16;;;21.05;100.00
62031;BME280;62035;52.094;5.112;2022-08-19T00:44:01;101462.75;;;20.79;100.00
62031;BME280;62035;52.094;5.112;2022-08-19T00:46:32;101468.56;;;20.83;100.00
62031;BME280;62035;52.094;5.112;2022-08-19T00:49:02;101468.53;;;20.76;100.00
62031;BME280;62035;52.094;5.112;2022-08-19T00:51:36;101468.34;;;20.78;100.00
62031;BME280;62035;52.094;5.112;2022-08-19T00:54:04;101469.81;;;20.87;100.00
62031;BME280;62035;52.094;5.112;2022-08-19T00:56:32;101465.97;;;20.61;100.00
62031;BME280;62035;52.094;5.112;2022-08-19T00:59:01;101465.34;;;20.59;100.00
62031;BME280;62035;52.094;5.112;2022-08-19T01:01:34;101470.09;;;20.57;100.00
62031;BME280;62035;52.094;5.112;2022-08-19T01:04:02;101462.31;;;20.82;100.00
62031;BME280;62035;52.094;5.112;2022-08-19T01:06:30;101459.84;;;20.87;100.00
62031;BME280;62035;52.094;5.112;2022-08-19T01:08:58;101462.56;;;20.94;100.00
62031;BME280;62035;52.094;5.112;2022-08-19T01:11:26;101467.13;;;20.87;100.00
62031;BME280;62035;52.094;5.112;2022-08-19T01:13:54;101467.34;;;20.92;100.00
62031;BME280;62035;52.094;5.112;2022-08-19T01:16:24;101460.84;;;20.80;100.00
62031;BME280;62035;52.094;5.112;2022-08-19T01:18:53;101459.59;;;20.76;100.00
62031;BME280;62035;52.094;5.112;2022-08-19T01:21:23;101457.25;;;20.66;100.00
62031;BME280;62035;52.094;5.112;2022-08-19T01:23:57;101459.19;;;20.85;100.00
62031;BME280;62035;52.094;5.112;2022-08-19T01:26:25;101455.72;;;20.98;100.00
62031;BME280;62035;52.094;5.112;2022-08-19T01:28:54;101452.16;;;20.91;100.00
62031;BME280;62035;52.094;5.112;2022-08-19T01:31:25;101457.34;;;20.92;100.00
62031;BME280;62035;52.094;5.112;2022-08-19T01:33:57;101463.19;;;20.89;100.00
62031;BME280;62035;52.094;5.112;2022-08-19T01:36:26;101472.50;;;20.80;100.00
62031;BME280;62035;52.094;5.112;2022-08-19T01:38:58;101469.91;;;20.59;100.00
62031;BME280;62035;52.094;5.112;2022-08-19T01:41:27;101477.81;;;20.60;100.00
62031;BME280;62035;52.094;5.112;2022-08-19T01:43:54;101477.09;;;20.45;100.00
62031;BME280;62035;52.094;5.112;2022-08-19T01:46:21;101482.91;;;20.42;100.00
62031;BME280;62035;52.094;5.112;2022-08-19T01:48:49;101481.81;;;20.37;100.00
62031;BME280;62035;52.094;5.112;2022-08-19T01:51:16;101477.63;;;20.34;100.00
62031;BME280;62035;52.094;5.112;2022-08-19T01:53:45;101482.75;;;20.50;100.00
62031;BME280;62035;52.094;5.112;2022-08-19T01:56:15;101480.75;;;20.66;100.00
62031;BME280;62035;52.094;5.112;2022-08-19T01:58:45;101475.28;;;20.52;100.00
62031;BME280;62035;52.094;5.112;2022-08-19T02:01:16;101484.50;;;20.37;100.00
62031;BME280;62035;52.094;5.112;2022-08-19T02:03:44;101479.56;;;20.40;100.00
62031;BME280;62035;52.094;5.112;2022-08-19T02:06:12;101482.75;;;20.22;100.00
62031;BME280;62035;52.094;5.112;2022-08-19T02:08:40;101477.06;;;20.39;100.00
62031;BME280;62035;52.094;5.112;2022-08-19T02:11:08;101483.25;;;20.33;100.00
62031;BME280;62035;52.094;5.112;2022-08-19T02:13:36;101480.28;;;20.55;100.00
62031;BME280;62035;52.094;5.112;2022-08-19T02:16:04;101490.06;;;20.28;100.00
62031;BME280;62035;52.094;5.112;2022-08-19T02:18:31;101490.06;;;20.28;100.00
62031;BME280;62035;52.094;5.112;2022-08-19T02:20:59;101485.78;;;20.41;100.00
62031;BME280;62035;52.094;5.112;2022-08-19T02:23:26;101477.56;;;20.55;100.00
62031;BME280;62035;52.094;5.112;2022-08-19T02:25:53;101471.13;;;20.56;100.00
62031;BME280;62035;52.094;5.112;2022-08-19T02:28:21;101468.66;;;20.61;100.00
62031;BME280;62035;52.094;5.112;2022-08-19T02:30:50;101486.13;;;20.31;100.00
62031;BME280;62035;52.094;5.112;2022-08-19T02:33:17;101478.94;;;20.38;100.00
62031;BME280;62035;52.094;5.112;2022-08-19T02:35:45;101481.38;;;20.33;100.00
62031;BME280;62035;52.094;5.112;2022-08-19T02:38:13;101490.75;;;20.37;100.00
62031;BME280;62035;52.094;5.112;2022-08-19T02:40:53;101491.28;;;20.26;100.00
62031;BME280;62035;52.094;5.112;2022-08-19T02:43:21;101481.84;;;20.15;100.00
62031;BME280;62035;52.094;5.112;2022-08-19T02:45:52;101482.75;;;20.22;100.00
62031;BME280;62035;52.094;5.112;2022-08-19T02:48:22;101479.25;;;20.28;100.00
62031;BME280;62035;52.094;5.112;2022-08-19T02:50:51;101485.44;;;19.94;100.00
62031;BME280;62035;52.094;5.112;2022-08-19T02:53:20;101479.22;;;20.22;100.00
62031;BME280;62035;52.094;5.112;2022-08-19T02:55:49;101469.13;;;20.37;100.00
62031;BME280;62035;52.094;5.112;2022-08-19T02:58:16;101467.34;;;20.51;100.00
62031;BME280;62035;52.094;5.112;2022-08-19T03:00:45;101459.63;;;20.48;100.00
62031;BME280;62035;52.094;5.112;2022-08-19T03:03:16;101469.53;;;20.34;100.00
62031;BME280;62035;52.094;5.112;2022-08-19T03:05:44;101467.41;;;20.29;100.00
62031;BME280;62035;52.094;5.112;2022-08-19T03:08:12;101474.75;;;20.36;100.00
62031;BME280;62035;52.094;5.112;2022-08-19T03:10:41;101468.53;;;20.14;100.00
62031;BME280;62035;52.094;5.112;2022-08-19T03:13:11;101463.38;;;20.19;100.00
62031;BME280;62035;52.094;5.112;2022-08-19T03:15:40;101468.19;;;20.51;100.00
62031;BME280;62035;52.094;5.112;2022-08-19T03:18:08;101465.59;;;20.37;100.00
62031;BME280;62035;52.094;5.112;2022-08-19T03:20:40;101457.44;;;20.30;100.00
62031;BME280;62035;52.094;5.112;2022-08-19T03:23:09;101462.69;;;20.10;100.00
62031;BME280;62035;52.094;5.112;2022-08-19T03:25:37;101468.16;;;19.89;100.00
62031;BME280;62035;52.094;5.112;2022-08-19T03:28:06;101466.28;;;19.89;100.00
62031;BME280;62035;52.094;5.112;2022-08-19T03:30:33;101469.25;;;19.94;100.00
62031;BME280;62035;52.094;5.112;2022-08-19T03:33:00;101459.91;;;19.97;100.00
62031;BME280;62035;52.094;5.112;2022-08-19T03:35:28;101464.88;;;19.72;100.00
62031;BME280;62035;52.094;5.112;2022-08-19T03:37:57;101459.22;;;19.88;100.00
62031;BME280;62035;52.094;5.112;2022-08-19T03:40:25;101452.91;;;19.81;100.00
62031;BME280;62035;52.094;5.112;2022-08-19T03:42:52;101452.00;;;19.74;100.00
62031;BME280;62035;52.094;5.112;2022-08-19T03:45:20;101462.56;;;19.90;100.00
62031;BME280;62035;52.094;5.112;2022-08-19T03:47:47;101469.50;;;19.78;100.00
62031;BME280;62035;52.094;5.112;2022-08-19T03:50:15;101464.94;;;19.79;100.00
62031;BME280;62035;52.094;5.112;2022-08-19T03:52:42;101465.50;;;19.95;100.00
62031;BME280;62035;52.094;5.112;2022-08-19T03:55:16;101468.28;;;19.81;100.00
62031;BME280;62035;52.094;5.112;2022-08-19T03:57:44;101462.56;;;19.90;100.00
62031;BME280;62035;52.094;5.112;2022-08-19T04:00:13;101479.22;;;20.01;100.00
62031;BME280;62035;52.094;5.112;2022-08-19T04:02:41;101478.47;;;20.07;100.00
62031;BME280;62035;52.094;5.112;2022-08-19T04:05:09;101473.41;;;19.97;100.00
62031;BME280;62035;52.094;5.112;2022-08-19T04:07:37;101476.31;;;19.95;100.00
62031;BME280;62035;52.094;5.112;2022-08-19T04:10:04;101473.56;;;19.89;100.00
62031;BME280;62035;52.094;5.112;2022-08-19T04:12:33;101476.75;;;19.99;100.00
62031;BME280;62035;52.094;5.112;2022-08-19T04:15:00;101463.91;;;20.08;100.00
62031;BME280;62035;52.094;5.112;2022-08-19T04:17:28;101460.97;;;20.03;100.00
62031;BME280;62035;52.094;5.112;2022-08-19T04:19:55;101467.19;;;19.96;100.00
62031;BME280;62035;52.094;5.112;2022-08-19T04:22:22;101459.72;;;19.77;100.00
62031;BME280;62035;52.094;5.112;2022-08-19T04:24:50;101459.59;;;19.64;100.00
62031;BME280;62035;52.094;5.112;2022-08-19T04:27:17;101461.22;;;19.80;100.00
62031;BME280;62035;52.094;5.112;2022-08-19T04:29:45;101454.25;;;19.71;100.00
62031;BME280;62035;52.094;5.112;2022-08-19T04:32:13;101456.31;;;19.69;100.00
62031;BME280;62035;52.094;5.112;2022-08-19T04:34:41;101453.38;;;19.63;100.00
62031;BME280;62035;52.094;5.112;2022-08-19T04:37:09;101455.09;;;19.71;100.00
62031;BME280;62035;52.094;5.112;2022-08-19T04:39:37;101465.25;;;19.69;100.00
62031;BME280;62035;52.094;5.112;2022-08-19T04:42:23;101462.44;;;19.77;100.00
62031;BME280;62035;52.094;5.112;2022-08-19T04:45:08;101470.09;;;19.74;100.00
62031;BME280;62035;52.094;5.112;2022-08-19T04:47:37;101470.09;;;20.02;100.00
62031;BME280;62035;52.094;5.112;2022-08-19T04:50:05;101468.41;;;20.22;100.00
62031;BME280;62035;52.094;5.112;2022-08-19T04:52:34;101471.50;;;20.19;100.00
62031;BME280;62035;52.094;5.112;2022-08-19T04:55:02;101476.78;;;20.06;100.00
62031;BME280;62035;52.094;5.112;2022-08-19T04:57:32;101471.97;;;20.29;100.00
62031;BME280;62035;52.094;5.112;2022-08-19T05:00:00;101476.25;;;20.17;100.00
62031;BME280;62035;52.094;5.112;2022-08-19T05:02:28;101470.50;;;20.26;100.00
62031;BME280;62035;52.094;5.112;2022-08-19T05:04:56;101484.75;;;20.42;100.00
62031;BME280;62035;52.094;5.112;2022-08-19T05:07:26;101491.78;;;20.36;100.00
62031;BME280;62035;52.094;5.112;2022-08-19T05:09:53;101494.09;;;20.67;100.00
62031;BME280;62035;52.094;5.112;2022-08-19T05:12:21;101490.50;;;20.60;100.00
62031;BME280;62035;52.094;5.112;2022-08-19T05:14:48;101495.75;;;20.68;100.00
62031;BME280;62035;52.094;5.112;2022-08-19T05:17:15;101495.19;;;20.79;100.00
62031;BME280;62035;52.094;5.112;2022-08-19T05:19:44;101497.66;;;20.74;100.00
62031;BME280;62035;52.094;5.112;2022-08-19T05:22:29;101488.31;;;20.83;100.00
62031;BME280;62035;52.094;5.112;2022-08-19T05:25:00;101499.97;;;20.84;100.00
62031;BME280;62035;52.094;5.112;2022-08-19T05:27:31;101494.13;;;20.74;100.00
62031;BME280;62035;52.094;5.112;2022-08-19T05:29:58;101488.50;;;20.75;100.00
62031;BME280;62035;52.094;5.112;2022-08-19T05:32:27;101478.97;;;20.79;100.00
62031;BME280;62035;52.094;5.112;2022-08-19T05:34:56;101488.19;;;20.98;100.00
62031;BME280;62035;52.094;5.112;2022-08-19T05:37:23;101488.16;;;20.91;100.00
62031;BME280;62035;52.094;5.112;2022-08-19T05:39:52;101489.78;;;20.86;100.00
62031;BME280;62035;52.094;5.112;2022-08-19T05:42:21;101488.06;;;21.13;100.00
62031;BME280;62035;52.094;5.112;2022-08-19T05:44:49;101483.53;;;21.26;100.00
62031;BME280;62035;52.094;5.112;2022-08-19T05:47:17;101478.91;;;21.14;100.00
62031;BME280;62035;52.094;5.112;2022-08-19T05:49:45;101474.75;;;21.18;100.00
62031;BME280;62035;52.094;5.112;2022-08-19T05:52:15;101477.78;;;20.95;100.00
62031;BME280;62035;52.094;5.112;2022-08-19T05:54:42;101478.78;;;21.42;100.00
62031;BME280;62035;52.094;5.112;2022-08-19T05:57:10;101476.28;;;21.40;100.00
62031;BME280;62035;52.094;5.112;2022-08-19T05:59:37;101470.91;;;21.53;100.00
62031;BME280;62035;52.094;5.112;2022-08-19T06:02:05;101464.44;;;21.54;100.00
62031;BME280;62035;52.094;5.112;2022-08-19T06:04:33;101468.75;;;21.29;100.00
62031;BME280;62035;52.094;5.112;2022-08-19T06:07:00;101464.56;;;21.26;100.00
62031;BME280;62035;52.094;5.112;2022-08-19T06:09:29;101479.97;;;21.26;100.00
62031;BME280;62035;52.094;5.112;2022-08-19T06:11:57;101487.94;;;21.34;100.00
62031;BME280;62035;52.094;5.112;2022-08-19T06:14:32;101488.34;;;21.38;100.00
62031;BME280;62035;52.094;5.112;2022-08-19T06:17:02;101481.88;;;21.32;100.00
62031;BME280;62035;52.094;5.112;2022-08-19T06:19:29;101483.78;;;21.45;100.00
62031;BME280;62035;52.094;5.112;2022-08-19T06:21:58;101477.56;;;21.51;100.00
62031;BME280;62035;52.094;5.112;2022-08-19T06:24:27;101485.25;;;21.60;100.00
62031;BME280;62035;52.094;5.112;2022-08-19T06:26:57;101475.91;;;21.56;100.00
62031;BME280;62035;52.094;5.112;2022-08-19T06:29:25;101476.72;;;21.50;100.00
62031;BME280;62035;52.094;5.112;2022-08-19T06:31:56;101481.31;;;21.56;100.00
62031;BME280;62035;52.094;5.112;2022-08-19T06:34:25;101479.63;;;21.62;100.00
62031;BME280;62035;52.094;5.112;2022-08-19T06:36:54;101485.06;;;21.69;100.00
62031;BME280;62035;52.094;5.112;2022-08-19T06:39:25;101476.13;;;21.94;100.00
62031;BME280;62035;52.094;5.112;2022-08-19T06:41:56;101475.09;;;22.09;100.00
62031;BME280;62035;52.094;5.112;2022-08-19T06:44:28;101470.50;;;21.89;100.00
62031;BME280;62035;52.094;5.112;2022-08-19T06:46:56;101475.50;;;21.86;100.00
62031;BME280;62035;52.094;5.112;2022-08-19T06:49:24;101470.91;;;22.00;100.00
62031;BME280;62035;52.094;5.112;2022-08-19T06:51:53;101472.19;;;22.04;100.00
62031;BME280;62035;52.094;5.112;2022-08-19T06:54:22;101483.84;;;21.98;100.00
62031;BME280;62035;52.094;5.112;2022-08-19T06:56:50;101477.59;;;22.17;100.00
62031;BME280;62035;52.094;5.112;2022-08-19T06:59:19;101480.09;;;22.18;100.00
62031;BME280;62035;52.094;5.112;2022-08-19T07:01:48;101484.88;;;21.90;100.00
62031;BME280;62035;52.094;5.112;2022-08-19T07:04:18;101482.53;;;22.53;100.00
62031;BME280;62035;52.094;5.112;2022-08-19T07:06:47;101479.47;;;22.36;100.00
62031;BME280;62035;52.094;5.112;2022-08-19T07:09:15;101472.53;;;22.53;100.00
62031;BME280;62035;52.094;5.112;2022-08-19T07:11:45;101472.28;;;22.75;100.00
62031;BME280;62035;52.094;5.112;2022-08-19T07:14:13;101479.06;;;23.04;100.00
62031;BME280;62035;52.094;5.112;2022-08-19T07:16:44;101475.69;;;23.15;100.00
62031;BME280;62035;52.094;5.112;2022-08-19T07:19:12;101475.91;;;23.13;100.00
62031;BME280;62035;52.094;5.112;2022-08-19T07:21:41;101476.06;;;23.18;100.00
62031;BME280;62035;52.094;5.112;2022-08-19T07:24:09;101483.06;;;22.94;100.00
62031;BME280;62035;52.094;5.112;2022-08-19T07:26:38;101483.47;;;22.98;100.00
62031;BME280;62035;52.094;5.112;2022-08-19T07:29:07;101484.94;;;23.01;100.00
62031;BME280;62035;52.094;5.112;2022-08-19T07:31:35;101493.47;;;23.04;100.00
62031;BME280;62035;52.094;5.112;2022-08-19T07:34:05;101491.22;;;22.94;100.00
62031;BME280;62035;52.094;5.112;2022-08-19T07:36:35;101487.44;;;23.02;100.00
62031;BME280;62035;52.094;5.112;2022-08-19T07:39:05;101490.31;;;23.14;100.00
62031;BME280;62035;52.094;5.112;2022-08-19T07:41:35;101489.81;;;23.23;100.00
62031;BME280;62035;52.094;5.112;2022-08-19T07:44:02;101485.63;;;23.27;100.00
62031;BME280;62035;52.094;5.112;2022-08-19T07:46:31;101488.47;;;23.39;100.00
62031;BME280;62035;52.094;5.112;2022-08-19T07:51:27;101491.03;;;23.27;100.00
62031;BME280;62035;52.094;5.112;2022-08-19T07:53:54;101489.50;;;23.76;100.00
62031;BME280;62035;52.094;5.112;2022-08-19T07:56:22;101490.66;;;23.93;100.00
62031;BME280;62035;52.094;5.112;2022-08-19T07:58:50;101486.34;;;24.04;100.00
62031;BME280;62035;52.094;5.112;2022-08-19T08:01:20;101493.78;;;24.40;100.00
62031;BME280;62035;52.094;5.112;2022-08-19T08:03:50;101484.91;;;24.70;100.00
62031;BME280;62035;52.094;5.112;2022-08-19T08:06:37;101488.38;;;24.58;100.00
62031;BME280;62035;52.094;5.112;2022-08-19T08:09:23;101495.44;;;24.41;100.00
62031;BME280;62035;52.094;5.112;2022-08-19T08:11:54;101487.28;;;24.41;100.00
62031;BME280;62035;52.094;5.112;2022-08-19T08:14:24;101489.97;;;24.23;100.00
62031;BME280;62035;52.094;5.112;2022-08-19T08:16:54;101505.81;;;24.33;100.00
62031;BME280;62035;52.094;5.112;2022-08-19T08:19:23;101507.28;;;24.72;100.00
62031;BME280;62035;52.094;5.112;2022-08-19T08:21:54;101507.34;;;24.65;100.00
62031;BME280;62035;52.094;5.112;2022-08-19T08:24:23;101506.59;;;24.58;100.00
62031;BME280;62035;52.094;5.112;2022-08-19T08:26:50;101503.19;;;24.81;100.00
62031;BME280;62035;52.094;5.112;2022-08-19T08:29:18;101508.53;;;24.51;100.00
62031;BME280;62035;52.094;5.112;2022-08-19T08:31:46;101501.34;;;24.93;100.00
62031;BME280;62035;52.094;5.112;2022-08-19T08:34:14;101487.53;;;25.13;100.00
62031;BME280;62035;52.094;5.112;2022-08-19T08:36:42;101490.81;;;25.33;100.00
62031;BME280;62035;52.094;5.112;2022-08-19T08:39:14;101486.91;;;25.71;100.00
62031;BME280;62035;52.094;5.112;2022-08-19T08:41:44;101496.53;;;25.73;100.00
62031;BME280;62035;52.094;5.112;2022-08-19T08:44:20;101492.75;;;25.74;100.00
62031;BME280;62035;52.094;5.112;2022-08-19T08:46:51;101474.94;;;25.72;100.00
62031;BME280;62035;52.094;5.112;2022-08-19T08:49:25;101490.84;;;25.75;100.00
62031;BME280;62035;52.094;5.112;2022-08-19T08:51:58;101488.63;;;25.83;100.00
62031;BME280;62035;52.094;5.112;2022-08-19T08:54:32;101492.06;;;25.49;100.00
62031;BME280;62035;52.094;5.112;2022-08-19T08:57:07;101490.41;;;25.89;100.00
62031;BME280;62035;52.094;5.112;2022-08-19T08:59:40;101502.44;;;25.70;100.00
62031;BME280;62035;52.094;5.112;2022-08-19T09:02:09;101489.25;;;26.20;100.00
62031;BME280;62035;52.094;5.112;2022-08-19T09:04:37;101481.66;;;26.57;100.00
62031;BME280;62035;52.094;5.112;2022-08-19T09:07:15;101484.25;;;26.52;100.00
62031;BME280;62035;52.094;5.112;2022-08-19T09:09:52;101485.53;;;26.03;100.00
62031;BME280;62035;52.094;5.112;2022-08-19T09:12:25;101478.09;;;26.22;100.00
62031;BME280;62035;52.094;5.112;2022-08-19T09:15:01;101489.22;;;26.09;100.00
62031;BME280;62035;52.094;5.112;2022-08-19T09:17:33;101483.31;;;26.58;100.00
62031;BME280;62035;52.094;5.112;2022-08-19T09:20:03;101485.44;;;26.21;100.00
62031;BME280;62035;52.094;5.112;2022-08-19T09:22:34;101499.19;;;26.15;100.00
62031;BME280;62035;52.094;5.112;2022-08-19T09:25:05;101497.31;;;26.27;100.00
62031;BME280;62035;52.094;5.112;2022-08-19T09:27:35;101501.69;;;26.28;100.00
62031;BME280;62035;52.094;5.112;2022-08-19T09:30:04;101491.53;;;26.35;100.00
62031;BME280;62035;52.094;5.112;2022-08-19T09:32:33;101500.19;;;26.32;100.00
62031;BME280;62035;52.094;5.112;2022-08-19T09:35:00;101498.75;;;26.30;100.00
62031;BME280;62035;52.094;5.112;2022-08-19T09:37:28;101502.47;;;27.10;100.00
62031;BME280;62035;52.094;5.112;2022-08-19T09:39:56;101504.50;;;26.80;100.00
62031;BME280;62035;52.094;5.112;2022-08-19T09:42:24;101498.53;;;27.35;100.00
62031;BME280;62035;52.094;5.112;2022-08-19T09:44:52;101487.25;;;27.60;100.00
62031;BME280;62035;52.094;5.112;2022-08-19T09:47:19;101492.28;;;27.51;100.00
62031;BME280;62035;52.094;5.112;2022-08-19T09:49:46;101494.34;;;27.72;100.00
62031;BME280;62035;52.094;5.112;2022-08-19T09:52:14;101493.66;;;27.37;100.00
62031;BME280;62035;52.094;5.112;2022-08-19T09:54:42;101499.28;;;27.02;100.00
62031;BME280;62035;52.094;5.112;2022-08-19T09:57:09;101493.19;;;27.40;100.00
62031;BME280;62035;52.094;5.112;2022-08-19T09:59:38;101503.03;;;27.12;100.00
62031;BME280;62035;52.094;5.112;2022-08-19T10:02:06;101493.72;;;27.25;100.00
62031;BME280;62035;52.094;5.112;2022-08-19T10:04:33;101495.16;;;26.76;100.00
62031;BME280;62035;52.094;5.112;2022-08-19T10:07:14;101497.72;;;26.94;100.00
62031;BME280;62035;52.094;5.112;2022-08-19T10:09:41;101496.94;;;26.70;100.00
62031;BME280;62035;52.094;5.112;2022-08-19T10:12:09;101497.44;;;26.67;100.00
62031;BME280;62035;52.094;5.112;2022-08-19T10:14:37;101489.47;;;26.66;100.00
62031;BME280;62035;52.094;5.112;2022-08-19T10:17:05;101489.84;;;26.57;100.00
62031;BME280;62035;52.094;5.112;2022-08-19T10:19:32;101487.44;;;26.73;100.00
62031;BME280;62035;52.094;5.112;2022-08-19T10:22:04;101476.81;;;27.28;100.00
62031;BME280;62035;52.094;5.112;2022-08-19T10:24:32;101477.50;;;27.35;100.00
62031;BME280;62035;52.094;5.112;2022-08-19T10:27:00;101482.81;;;27.42;100.00
62031;BME280;62035;52.094;5.112;2022-08-19T10:29:29;101475.69;;;27.41;100.00
62031;BME280;62035;52.094;5.112;2022-08-19T10:31:59;101479.81;;;26.98;100.00
62031;BME280;62035;52.094;5.112;2022-08-19T10:34:27;101474.28;;;27.83;100.00
62031;BME280;62035;52.094;5.112;2022-08-19T10:36:55;101469.41;;;27.85;100.00
62031;BME280;62035;52.094;5.112;2022-08-19T10:39:23;101474.84;;;28.36;100.00
62031;BME280;62035;52.094;5.112;2022-08-19T10:41:50;101476.44;;;27.98;100.00
62031;BME280;62035;52.094;5.112;2022-08-19T10:44:18;101479.09;;;27.93;100.00
62031;BME280;62035;52.094;5.112;2022-08-19T10:46:47;101473.38;;;27.95;100.00
62031;BME280;62035;52.094;5.112;2022-08-19T10:49:15;101473.75;;;28.20;100.00
62031;BME280;62035;52.094;5.112;2022-08-19T10:51:44;101472.75;;;28.43;100.00
62031;BME280;62035;52.094;5.112;2022-08-19T10:54:29;101465.53;;;28.97;100.00
62031;BME280;62035;52.094;5.112;2022-08-19T10:57:10;101475.38;;;28.54;100.00
62031;BME280;62035;52.094;5.112;2022-08-19T10:59:38;101462.00;;;28.58;100.00
62031;BME280;62035;52.094;5.112;2022-08-19T11:02:06;101467.47;;;28.19;100.00
62031;BME280;62035;52.094;5.112;2022-08-19T11:04:38;101464.66;;;28.31;100.00
62031;BME280;62035;52.094;5.112;2022-08-19T11:07:06;101467.13;;;28.16;100.00
62031;BME280;62035;52.094;5.112;2022-08-19T11:09:37;101460.34;;;28.02;100.00
62031;BME280;62035;52.094;5.112;2022-08-19T11:12:06;101470.63;;;28.11;100.00
62031;BME280;62035;52.094;5.112;2022-08-19T11:14:34;101471.03;;;28.20;100.00
62031;BME280;62035;52.094;5.112;2022-08-19T11:17:02;101469.66;;;27.39;100.00
62031;BME280;62035;52.094;5.112;2022-08-19T11:19:30;101471.56;;;27.38;100.00
62031;BME280;62035;52.094;5.112;2022-08-19T11:21:59;101464.31;;;27.32;100.00
62031;BME280;62035;52.094;5.112;2022-08-19T11:24:28;101466.97;;;27.27;100.00
62031;BME280;62035;52.094;5.112;2022-08-19T11:27:00;101468.22;;;27.36;100.00
62031;BME280;62035;52.094;5.112;2022-08-19T11:29:30;101476.56;;;27.30;100.00
62031;BME280;62035;52.094;5.112;2022-08-19T11:31:57;101471.41;;;27.45;100.00
62031;BME280;62035;52.094;5.112;2022-08-19T11:34:27;101469.47;;;27.91;100.00
62031;BME280;62035;52.094;5.112;2022-08-19T11:36:55;101461.00;;;28.09;100.00
62031;BME280;62035;52.094;5.112;2022-08-19T11:39:26;101458.19;;;28.37;100.00
62031;BME280;62035;52.094;5.112;2022-08-19T11:41:55;101461.66;;;28.16;100.00
62031;BME280;62035;52.094;5.112;2022-08-19T11:44:25;101456.19;;;28.33;100.00
62031;BME280;62035;52.094;5.112;2022-08-19T11:46:53;101461.78;;;28.21;100.00
62031;BME280;62035;52.094;5.112;2022-08-19T11:49:21;101467.13;;;28.16;100.00
62031;BME280;62035;52.094;5.112;2022-08-19T11:51:48;101468.47;;;27.63;100.00
62031;BME280;62035;52.094;5.112;2022-08-19T11:54:16;101461.75;;;27.71;100.00
62031;BME280;62035;52.094;5.112;2022-08-19T11:56:45;101472.88;;;27.98;100.00
62031;BME280;62035;52.094;5.112;2022-08-19T11:59:14;101465.75;;;28.30;100.00
62031;BME280;62035;52.094;5.112;2022-08-19T12:01:41;101465.19;;;28.50;100.00
62031;BME280;62035;52.094;5.112;2022-08-19T12:04:09;101468.63;;;28.07;100.00
62031;BME280;62035;52.094;5.112;2022-08-19T12:06:37;101458.28;;;27.75;100.00
62031;BME280;62035;52.094;5.112;2022-08-19T12:09:06;101465.25;;;27.83;100.00
62031;BME280;62035;52.094;5.112;2022-08-19T12:11:35;101474.72;;;27.92;100.00
62031;BME280;62035;52.094;5.112;2022-08-19T12:14:05;101466.47;;;28.09;100.00
62031;BME280;62035;52.094;5.112;2022-08-19T12:16:33;101471.88;;;28.37;100.00
62031;BME280;62035;52.094;5.112;2022-08-19T12:19:03;101467.97;;;28.33;100.00
62031;BME280;62035;52.094;5.112;2022-08-19T12:21:32;101469.72;;;28.61;100.00
62031;BME280;62035;52.094;5.112;2022-08-19T12:24:02;101457.53;;;28.52;100.00
62031;BME280;62035;52.094;5.112;2022-08-19T12:26:30;101468.28;;;28.20;100.00
62031;BME280;62035;52.094;5.112;2022-08-19T12:28:58;101463.56;;;28.32;100.00
62031;BME280;62035;52.094;5.112;2022-08-19T12:31:27;101463.13;;;28.40;100.00
62031;BME280;62035;52.094;5.112;2022-08-19T12:33:55;101454.38;;;28.05;100.00
62031;BME280;62035;52.094;5.112;2022-08-19T12:36:23;101457.28;;;27.81;100.00
62031;BME280;62035;52.094;5.112;2022-08-19T12:38:50;101453.94;;;28.13;100.00
62031;BME280;62035;52.094;5.112;2022-08-19T12:41:19;101454.97;;;27.73;100.00
62031;BME280;62035;52.094;5.112;2022-08-19T12:43:47;101459.03;;;27.87;100.00
62031;BME280;62035;52.094;5.112;2022-08-19T12:46:16;101458.53;;;27.74;100.00
62031;BME280;62035;52.094;5.112;2022-08-19T12:48:46;101458.16;;;27.53;100.00
62031;BME280;62035;52.094;5.112;2022-08-19T12:51:15;101460.56;;;27.50;100.00
62031;BME280;62035;52.094;5.112;2022-08-19T12:53:45;101463.97;;;27.29;100.00